Milford, California
Current Conditions -  °F | °C
As of 9:55 PM on Thursday 27 Nov 2014 (Local Time) from KRTS Reporting Station
Clear Clear  
Wind Chill: 46°   Ceiling: Unl
Heat Index: 48°   Visibility: 10mi
Dew Point: 16°   Wind: 6mph
Humidity: 27%   Direction: 280°W
Pressure: 30.12"   Gusts: NA
Location:  40.17°N, 120.37°W
Report Text: KRTS 280555Z AUTO 28005KT 10SM CLR 09/M09 A3012 RMK AO2
Loading
Personal Weather Stations






























Interactive Weather Map New forecast layout! Learn more

10-Day Weather Forecast

Advertisements
Track Severe Weather on mobile